createdAt,value
2023-03-14T00:00:25.650Z,78.19
2023-03-14T00:01:25.649Z,78.19
2023-03-14T00:02:25.674Z,78.09
2023-03-14T00:03:25.620Z,78.30
2023-03-14T00:04:25.607Z,78.09
2023-03-14T00:05:25.601Z,78.09
2023-03-14T00:06:25.614Z,77.98
2023-03-14T00:07:25.590Z,78.09
2023-03-14T00:08:25.562Z,77.64
2023-03-14T00:09:25.542Z,78.39
2023-03-14T00:10:25.527Z,78.30
2023-03-14T00:11:25.516Z,78.09
2023-03-14T00:12:25.528Z,77.98
2023-03-14T00:13:25.518Z,77.78
2023-03-14T00:14:25.495Z,77.89
2023-03-14T00:15:25.492Z,78.09
2023-03-14T00:16:25.473Z,77.58
2023-03-14T00:17:25.483Z,77.78
2023-03-14T00:18:25.447Z,77.37
2023-03-14T00:19:25.428Z,77.58
2023-03-14T00:20:25.417Z,77.48
2023-03-14T00:21:25.420Z,77.64
2023-03-14T00:22:25.435Z,77.14
2023-03-14T00:23:25.404Z,77.24
2023-03-14T00:24:25.369Z,77.64
2023-03-14T00:25:25.354Z,77.03
2023-03-14T00:26:25.351Z,77.24
2023-03-14T00:27:25.371Z,77.55
2023-03-14T00:28:25.337Z,77.24
2023-03-14T00:29:25.320Z,76.83
2023-03-14T00:30:25.304Z,77.03
2023-03-14T00:31:25.356Z,77.14
2023-03-14T00:32:25.331Z,77.14
2023-03-14T00:33:25.278Z,77.24
2023-03-14T00:34:25.256Z,76.93
2023-03-14T00:35:25.244Z,77.14
2023-03-14T00:36:25.911Z,77.24
2023-03-14T00:37:25.244Z,77.03
2023-03-14T00:38:25.261Z,77.14
2023-03-14T00:39:25.205Z,77.14
2023-03-14T00:40:25.189Z,76.93
2023-03-14T00:41:25.200Z,77.24
2023-03-14T00:42:25.177Z,76.93
2023-03-14T00:43:25.155Z,76.79
2023-03-14T00:44:25.153Z,76.62
2023-03-14T00:45:25.142Z,75.98
2023-03-14T00:46:25.136Z,76.62
2023-03-14T00:47:25.132Z,76.01
2023-03-14T00:48:25.108Z,76.08
2023-03-14T00:49:25.078Z,75.92
2023-03-14T00:50:25.092Z,76.12
2023-03-14T00:51:25.069Z,76.28
2023-03-14T00:52:25.070Z,76.08
2023-03-14T00:53:25.052Z,76.32
2023-03-14T00:54:25.056Z,76.39
2023-03-14T00:55:25.015Z,76.32
2023-03-14T00:56:25.018Z,76.01
2023-03-14T00:57:25.002Z,76.12
2023-03-14T00:58:25.018Z,76.53
2023-03-14T00:59:24.973Z,76.32
2023-03-14T01:00:24.963Z,76.32
2023-03-14T01:01:25.010Z,77.03
2023-03-14T01:02:25.078Z,76.12
2023-03-14T01:03:24.922Z,75.98
2023-03-14T01:04:24.933Z,76.73
2023-03-14T01:05:24.912Z,76.62
2023-03-14T01:06:24.905Z,76.42
2023-03-14T01:07:24.909Z,77.14
2023-03-14T01:08:24.871Z,77.03
2023-03-14T01:09:24.869Z,76.39
2023-03-14T01:10:24.871Z,76.22
2023-03-14T01:11:24.834Z,76.42
2023-03-14T01:12:24.844Z,76.32
2023-03-14T01:13:24.824Z,76.59
2023-03-14T01:14:24.821Z,77.24
2023-03-14T01:15:24.790Z,76.73
2023-03-14T01:16:24.833Z,77.10
2023-03-14T01:17:24.775Z,77.44
2023-03-14T01:18:24.775Z,77.61
2023-03-14T01:19:24.779Z,78.42
2023-03-14T01:20:24.738Z,79.38
2023-03-14T01:21:24.735Z,79.75
2023-03-14T01:22:24.734Z,80.91
2023-03-14T01:23:24.719Z,81.52
2023-03-14T01:24:24.691Z,82.37
2023-03-14T01:25:24.689Z,82.57
2023-03-14T01:26:24.703Z,83.59
2023-03-14T01:27:24.666Z,84.96
2023-03-14T01:28:24.681Z,85.27
2023-03-14T01:29:24.650Z,85.82
2023-03-14T01:30:24.623Z,86.83
2023-03-14T01:31:24.690Z,87.65
2023-03-14T01:32:24.640Z,88.26
2023-03-14T01:33:24.614Z,88.00
2023-03-14T01:34:24.587Z,88.10
2023-03-14T01:35:24.563Z,87.90
2023-03-14T01:36:24.557Z,88.35
2023-03-14T01:37:24.547Z,88.14
2023-03-14T01:38:24.545Z,89.17
2023-03-14T01:39:24.519Z,90.08
2023-03-14T01:40:24.512Z,89.17
2023-03-14T01:41:24.515Z,89.37
2023-03-14T01:42:24.540Z,90.53
2023-03-14T01:43:24.494Z,90.43
2023-03-14T01:44:24.467Z,90.74
2023-03-14T01:45:24.490Z,90.78
2023-03-14T01:46:24.447Z,90.68
2023-03-14T01:47:24.427Z,91.29
2023-03-14T01:48:24.449Z,91.50
2023-03-14T01:49:24.405Z,90.99
2023-03-14T01:50:24.451Z,92.25
2023-03-14T01:51:24.384Z,91.64
2023-03-14T01:52:24.381Z,91.44
2023-03-14T01:53:24.374Z,92.05
2023-03-14T01:54:24.371Z,92.50
2023-03-14T01:55:24.353Z,93.22
2023-03-14T01:56:24.349Z,93.63
2023-03-14T01:57:24.332Z,93.57
2023-03-14T01:58:24.364Z,93.67
2023-03-14T01:59:24.306Z,93.16
2023-03-14T02:00:24.286Z,92.75
2023-03-14T02:01:24.290Z,92.03
2023-03-14T02:02:24.277Z,92.49
2023-03-14T02:03:24.363Z,92.75
2023-03-14T02:04:24.250Z,92.38
2023-03-14T02:05:24.225Z,93.92
2023-03-14T02:06:24.229Z,92.79
2023-03-14T02:07:24.213Z,93.62
2023-03-14T02:08:24.237Z,94.54
2023-03-14T02:09:24.202Z,94.95
2023-03-14T02:10:24.170Z,94.54
2023-03-14T02:11:24.163Z,94.33
2023-03-14T02:12:24.178Z,94.43
2023-03-14T02:13:24.159Z,94.68
2023-03-14T02:14:24.169Z,95.66
2023-03-14T02:15:24.136Z,95.91
2023-03-14T02:16:24.193Z,94.89
2023-03-14T02:17:24.097Z,95.20
2023-03-14T02:18:24.102Z,95.09
2023-03-14T02:19:24.073Z,95.81
2023-03-14T02:20:24.065Z,95.81
2023-03-14T02:21:24.053Z,94.68
2023-03-14T02:22:24.041Z,94.78
2023-03-14T02:23:24.025Z,94.99
2023-03-14T02:24:24.004Z,94.58
2023-03-14T02:25:23.998Z,94.68
2023-03-14T02:26:23.982Z,94.58
2023-03-14T02:27:23.979Z,94.52
2023-03-14T02:28:23.987Z,94.68
2023-03-14T02:29:23.943Z,94.78
2023-03-14T02:30:23.957Z,94.48
2023-03-14T02:31:23.998Z,94.58
2023-03-14T02:32:24.015Z,94.48
2023-03-14T02:33:23.909Z,94.48
2023-03-14T02:34:23.903Z,94.27
2023-03-14T02:35:23.873Z,94.78
2023-03-14T02:36:23.868Z,94.89
2023-03-14T02:37:23.853Z,95.44
2023-03-14T02:38:23.861Z,94.99
2023-03-14T02:39:23.840Z,96.01
2023-03-14T02:40:23.840Z,95.09
2023-03-14T02:41:23.842Z,94.99
2023-03-14T02:42:23.812Z,94.17
2023-03-14T02:43:23.818Z,94.89
2023-03-14T02:44:23.805Z,95.54
2023-03-14T02:45:23.774Z,94.83
2023-03-14T02:46:23.869Z,94.68
2023-03-14T02:47:23.750Z,94.48
2023-03-14T02:48:23.746Z,94.62
2023-03-14T02:49:23.741Z,94.62
2023-03-14T02:50:23.719Z,94.01
2023-03-14T02:51:23.691Z,94.58
2023-03-14T02:52:23.682Z,94.83
2023-03-14T02:53:23.670Z,94.42
2023-03-14T02:54:23.677Z,94.27
2023-03-14T02:55:23.673Z,94.17
2023-03-14T02:56:23.651Z,94.01
2023-03-14T02:57:23.621Z,93.96
2023-03-14T02:58:23.632Z,94.32
2023-03-14T02:59:23.641Z,94.83
2023-03-14T03:00:23.612Z,94.89
2023-03-14T03:01:23.632Z,95.86
2023-03-14T03:02:23.607Z,95.14
2023-03-14T03:03:23.711Z,95.14
2023-03-14T03:04:23.571Z,96.06
2023-03-14T03:05:23.532Z,95.44
2023-03-14T03:06:23.521Z,95.86
2023-03-14T03:07:23.509Z,95.44
2023-03-14T03:08:23.514Z,95.44
2023-03-14T03:09:23.504Z,95.44
2023-03-14T03:10:23.479Z,96.22
2023-03-14T03:11:23.464Z,96.32
2023-03-14T03:12:23.477Z,96.47
2023-03-14T03:13:23.439Z,96.16
2023-03-14T03:14:23.456Z,95.34
2023-03-14T03:15:23.433Z,95.09
2023-03-14T03:16:23.487Z,95.50
2023-03-14T03:17:23.407Z,95.61
2023-03-14T03:18:23.410Z,95.65
2023-03-14T03:19:23.384Z,96.01
2023-03-14T03:20:23.366Z,94.78
2023-03-14T03:21:23.350Z,94.37
2023-03-14T03:22:23.346Z,94.27
2023-03-14T03:23:23.326Z,93.66
2023-03-14T03:24:23.350Z,93.35
2023-03-14T03:25:23.308Z,93.76
2023-03-14T03:26:23.311Z,94.33
2023-03-14T03:27:23.300Z,93.25
2023-03-14T03:28:23.281Z,93.55
2023-03-14T03:29:23.291Z,92.83
2023-03-14T03:30:23.267Z,92.49
2023-03-14T03:31:23.243Z,92.59
2023-03-14T03:32:23.301Z,91.97
2023-03-14T03:33:23.218Z,91.97
2023-03-14T03:34:23.272Z,91.67
2023-03-14T03:35:23.196Z,91.77
2023-03-14T03:36:23.213Z,91.36
2023-03-14T03:37:23.173Z,91.67
2023-03-14T03:38:23.182Z,91.46
2023-03-14T03:39:23.165Z,91.42
2023-03-14T03:40:23.165Z,91.26
2023-03-14T03:41:23.147Z,91.52
2023-03-14T03:42:23.122Z,90.19
2023-03-14T03:43:23.118Z,90.64
2023-03-14T03:44:23.111Z,90.39
2023-03-14T03:45:23.097Z,89.89
2023-03-14T03:46:23.145Z,89.68
2023-03-14T03:47:23.058Z,90.39
2023-03-14T03:48:23.065Z,89.78
2023-03-14T03:49:23.054Z,90.39
2023-03-14T03:50:23.188Z,89.98
2023-03-14T03:51:23.033Z,89.12
2023-03-14T03:52:23.031Z,89.78
2023-03-14T03:53:32.843Z,90.70
2023-03-14T03:54:23.999Z,90.19
2023-03-14T03:55:22.968Z,89.27
2023-03-14T03:56:22.974Z,89.06
2023-03-14T03:57:22.947Z,89.23
2023-03-14T03:58:22.954Z,89.37
2023-03-14T03:59:22.953Z,89.43
2023-03-14T04:00:22.924Z,89.89
2023-03-14T04:01:22.912Z,89.37
2023-03-14T04:02:23.013Z,89.17
2023-03-14T04:03:22.892Z,89.27
2023-03-14T04:04:22.899Z,89.74
2023-03-14T04:05:22.867Z,89.12
2023-03-14T04:06:22.897Z,89.03
2023-03-14T04:07:22.847Z,88.96
2023-03-14T04:08:22.831Z,88.92
2023-03-14T04:09:22.836Z,88.98
2023-03-14T04:10:22.817Z,89.12
2023-03-14T04:11:22.786Z,88.82
2023-03-14T04:12:22.781Z,88.82
2023-03-14T04:13:22.776Z,88.10
2023-03-14T04:14:22.780Z,88.41
2023-03-14T04:15:22.753Z,88.57
2023-03-14T04:16:22.836Z,88.82
2023-03-14T04:17:22.934Z,88.06
2023-03-14T04:18:22.724Z,88.20
2023-03-14T04:19:23.018Z,88.62
2023-03-14T04:20:22.704Z,88.47
2023-03-14T04:21:22.675Z,88.41
2023-03-14T04:22:22.689Z,88.00
2023-03-14T04:23:22.655Z,88.47
2023-03-14T04:24:22.661Z,88.47
2023-03-14T04:25:22.650Z,88.06
2023-03-14T04:26:22.633Z,88.47
2023-03-14T04:27:22.629Z,88.17
2023-03-14T04:28:22.614Z,89.12
2023-03-14T04:29:22.604Z,88.57
2023-03-14T04:30:22.594Z,88.37
2023-03-14T04:31:22.674Z,89.09
2023-03-14T04:32:22.634Z,88.88
2023-03-14T04:33:22.550Z,89.09
2023-03-14T04:34:22.554Z,89.18
2023-03-14T04:35:22.526Z,89.33
2023-03-14T04:36:22.516Z,89.94
2023-03-14T04:37:22.502Z,90.25
2023-03-14T04:38:22.507Z,90.25
2023-03-14T04:39:22.495Z,89.84
2023-03-14T04:40:22.462Z,90.77
2023-03-14T04:41:22.447Z,90.66
2023-03-14T04:42:22.484Z,89.74
2023-03-14T04:43:22.444Z,90.15
2023-03-14T04:44:22.435Z,90.86
2023-03-14T04:45:22.400Z,90.56
2023-03-14T04:46:22.418Z,90.45
2023-03-14T04:47:22.407Z,90.77
2023-03-14T04:48:22.363Z,90.56
2023-03-14T04:49:22.399Z,91.48
2023-03-14T04:50:22.357Z,91.38
2023-03-14T04:51:22.338Z,90.97
2023-03-14T04:52:22.319Z,92.44
2023-03-14T04:53:22.313Z,92.30
2023-03-14T04:54:22.429Z,92.40
2023-03-14T04:55:24.385Z,92.44
2023-03-14T04:56:22.268Z,92.34
2023-03-14T04:57:22.265Z,92.65
2023-03-14T04:58:22.248Z,92.65
2023-03-14T04:59:22.245Z,92.75
2023-03-14T05:00:22.275Z,93.26
2023-03-14T05:01:22.316Z,93.06
2023-03-14T05:02:22.217Z,93.47
2023-03-14T05:03:22.274Z,93.57
2023-03-14T05:04:22.178Z,93.88
2023-03-14T05:05:22.199Z,93.51
2023-03-14T05:06:22.154Z,93.57
2023-03-14T05:07:22.147Z,93.77
2023-03-14T05:08:22.146Z,93.10
2023-03-14T05:09:22.139Z,93.47
2023-03-14T05:10:22.272Z,93.26
2023-03-14T05:11:22.100Z,93.62
2023-03-14T05:12:22.083Z,93.37
2023-03-14T05:13:22.094Z,93.98
2023-03-14T05:14:22.063Z,93.47
2023-03-14T05:15:22.103Z,93.00
2023-03-14T05:16:22.152Z,93.16
2023-03-14T05:17:22.042Z,93.37
2023-03-14T05:18:22.030Z,92.69
2023-03-14T05:19:22.026Z,92.55
2023-03-14T05:20:21.998Z,91.73
2023-03-14T05:21:22.013Z,92.55
2023-03-14T05:22:21.971Z,91.31
2023-03-14T05:23:21.961Z,91.42
2023-03-14T05:24:21.944Z,90.81
2023-03-14T05:25:21.956Z,90.45
2023-03-14T05:26:21.970Z,90.91
2023-03-14T05:27:21.930Z,90.45
2023-03-14T05:28:21.911Z,90.25
2023-03-14T05:29:21.910Z,89.43
2023-03-14T05:30:21.876Z,89.84
2023-03-14T05:31:21.907Z,89.53
2023-03-14T05:32:21.921Z,89.43
2023-03-14T05:33:21.863Z,89.94
2023-03-14T05:34:21.829Z,89.03
2023-03-14T05:35:21.838Z,89.53
2023-03-14T05:36:21.840Z,89.64
2023-03-14T05:37:21.809Z,89.12
2023-03-14T05:38:21.801Z,89.33
2023-03-14T05:39:21.799Z,89.39
2023-03-14T05:40:21.770Z,88.82
2023-03-14T05:41:21.775Z,88.92
2023-03-14T05:42:21.819Z,88.41
2023-03-14T05:43:21.735Z,88.82
2023-03-14T05:44:21.735Z,88.88
2023-03-14T05:45:21.715Z,88.82
2023-03-14T05:46:21.787Z,88.68
2023-03-14T05:47:21.707Z,88.51
2023-03-14T05:48:21.705Z,88.20
2023-03-14T05:49:21.682Z,88.51
2023-03-14T05:50:21.653Z,88.71
2023-03-14T05:51:21.646Z,88.71
2023-03-14T05:52:21.632Z,87.96
2023-03-14T05:53:21.657Z,87.45
2023-03-14T05:54:21.611Z,87.35
2023-03-14T05:55:21.599Z,87.24
2023-03-14T05:56:21.599Z,87.45
2023-03-14T05:57:21.590Z,87.24
2023-03-14T05:58:21.653Z,87.04
2023-03-14T05:59:21.582Z,87.35
2023-03-14T06:00:21.555Z,86.83
2023-03-14T06:01:21.538Z,87.04
2023-03-14T06:02:21.587Z,87.14
2023-03-14T06:03:21.541Z,87.14
2023-03-14T06:04:21.526Z,87.35
2023-03-14T06:05:21.485Z,87.65
2023-03-14T06:06:21.467Z,87.55
2023-03-14T06:07:21.479Z,87.76
2023-03-14T06:08:21.462Z,88.06
2023-03-14T06:09:21.436Z,87.96
2023-03-14T06:10:21.442Z,88.20
2023-03-14T06:11:21.434Z,88.26
2023-03-14T06:12:21.412Z,88.47
2023-03-14T06:13:21.415Z,88.20
2023-03-14T06:14:21.445Z,88.92
2023-03-14T06:15:21.379Z,88.92
2023-03-14T06:16:21.393Z,89.12
2023-03-14T06:17:21.346Z,88.82
2023-03-14T06:18:21.328Z,89.23
2023-03-14T06:19:21.336Z,88.71
2023-03-14T06:20:21.340Z,89.03
2023-03-14T06:21:21.298Z,89.17
2023-03-14T06:22:21.290Z,88.82
2023-03-14T06:23:21.276Z,89.33
2023-03-14T06:24:21.381Z,89.03
2023-03-14T06:25:21.278Z,89.43
2023-03-14T06:26:21.261Z,89.27
2023-03-14T06:27:21.235Z,89.64
2023-03-14T06:28:21.212Z,89.64
2023-03-14T06:29:21.208Z,89.12
2023-03-14T06:30:21.237Z,89.33
2023-03-14T06:31:21.309Z,90.45
2023-03-14T06:32:21.202Z,89.74
2023-03-14T06:33:21.165Z,89.03
2023-03-14T06:34:21.149Z,89.06
2023-03-14T06:35:21.147Z,89.03
2023-03-14T06:36:21.141Z,89.12
2023-03-14T06:37:21.275Z,89.12
2023-03-14T06:38:21.119Z,89.03
2023-03-14T06:39:21.102Z,89.03
2023-03-14T06:40:21.100Z,88.98
2023-03-14T06:41:21.093Z,89.18
2023-03-14T06:42:21.060Z,88.78
2023-03-14T06:43:21.066Z,88.98
2023-03-14T06:44:21.048Z,88.37
2023-03-14T06:45:21.038Z,88.78
2023-03-14T06:46:21.140Z,88.47
2023-03-14T06:47:21.012Z,88.26
2023-03-14T06:48:20.992Z,88.06
2023-03-14T06:49:20.983Z,87.85
2023-03-14T06:50:20.983Z,88.06
2023-03-14T06:51:20.978Z,87.96
2023-03-14T06:52:20.948Z,87.41
2023-03-14T06:53:20.948Z,87.10
2023-03-14T06:54:20.936Z,86.85
2023-03-14T06:55:22.571Z,86.85
2023-03-14T06:56:20.938Z,87.26
2023-03-14T06:57:20.905Z,86.49
2023-03-14T06:58:20.895Z,86.55
2023-03-14T06:59:20.893Z,85.73
2023-03-14T07:00:20.859Z,85.83
2023-03-14T07:01:20.962Z,85.73
2023-03-14T07:02:26.971Z,85.83
2023-03-14T07:03:21.844Z,85.63
2023-03-14T07:04:20.947Z,85.53
2023-03-14T07:05:20.803Z,85.38
2023-03-14T07:06:20.814Z,85.42
2023-03-14T07:07:20.791Z,85.49
2023-03-14T07:08:20.774Z,85.38
2023-03-14T07:09:20.763Z,85.38
2023-03-14T07:10:20.752Z,85.69
2023-03-14T07:11:20.736Z,84.67
2023-03-14T07:12:20.717Z,84.88
2023-03-14T07:13:20.723Z,84.47
2023-03-14T07:14:21.948Z,84.67
2023-03-14T07:15:20.687Z,84.98
2023-03-14T07:16:20.772Z,84.88
2023-03-14T07:17:20.663Z,84.74
2023-03-14T07:18:20.720Z,84.63
2023-03-14T07:19:20.659Z,84.39
2023-03-14T07:20:20.651Z,83.57
2023-03-14T07:21:20.635Z,83.47
2023-03-14T07:22:20.616Z,83.02
2023-03-14T07:23:20.607Z,82.92
2023-03-14T07:24:20.579Z,82.92
2023-03-14T07:25:20.579Z,83.53
2023-03-14T07:26:20.556Z,83.33
2023-03-14T07:27:20.549Z,83.33
2023-03-14T07:28:20.558Z,83.02
2023-03-14T07:29:20.551Z,83.63
2023-03-14T07:30:20.541Z,83.63
2023-03-14T07:31:20.559Z,83.43
2023-03-14T07:32:20.504Z,83.33
2023-03-14T07:33:20.517Z,83.23
2023-03-14T07:34:20.611Z,83.63
2023-03-14T07:35:20.483Z,83.23
2023-03-14T07:36:20.481Z,83.84
2023-03-14T07:37:20.456Z,83.84
2023-03-14T07:38:22.706Z,83.53
2023-03-14T07:39:20.429Z,83.43
2023-03-14T07:40:20.421Z,83.33
2023-03-14T07:41:20.407Z,83.12
2023-03-14T07:42:20.384Z,83.18
2023-03-14T07:43:20.374Z,83.09
2023-03-14T07:44:20.598Z,83.29
2023-03-14T07:45:20.362Z,83.29
2023-03-14T07:46:20.381Z,82.47
2023-03-14T07:47:20.327Z,82.43
2023-03-14T07:48:20.323Z,83.25
2023-03-14T07:49:20.323Z,81.93
2023-03-14T07:50:20.383Z,81.93
2023-03-14T07:51:20.299Z,82.23
2023-03-14T07:52:20.280Z,83.15
2023-03-14T07:53:20.272Z,82.64
2023-03-14T07:54:21.242Z,82.60
2023-03-14T07:55:20.248Z,82.50
2023-03-14T07:56:20.241Z,82.54
2023-03-14T07:57:20.220Z,82.23
2023-03-14T07:58:20.208Z,82.23
2023-03-14T07:59:20.232Z,83.15
2023-03-14T08:00:20.192Z,81.88
2023-03-14T08:01:20.183Z,82.40
2023-03-14T08:02:20.171Z,82.54
2023-03-14T08:03:20.148Z,82.64
2023-03-14T08:04:20.145Z,83.35
2023-03-14T08:05:20.145Z,83.18
2023-03-14T08:06:21.110Z,82.37
2023-03-14T08:07:20.120Z,83.25
2023-03-14T08:08:20.098Z,83.65
2023-03-14T08:09:20.077Z,83.15
2023-03-14T08:10:20.083Z,83.15
2023-03-14T08:11:20.055Z,82.94
2023-03-14T08:12:20.067Z,83.04
2023-03-14T08:13:20.040Z,83.04
2023-03-14T08:14:20.052Z,82.54
2023-03-14T08:15:20.011Z,83.15
2023-03-14T08:16:20.093Z,82.43
2023-03-14T08:17:19.986Z,82.84
2023-03-14T08:18:20.015Z,82.43
2023-03-14T08:19:19.965Z,82.54
2023-03-14T08:20:19.964Z,82.84
2023-03-14T08:21:19.958Z,83.04
2023-03-14T08:22:20.384Z,83.04
2023-03-14T08:23:19.933Z,83.04
2023-03-14T08:24:19.925Z,83.25
2023-03-14T08:25:19.929Z,83.11
2023-03-14T08:26:19.903Z,83.15
2023-03-14T08:27:19.892Z,83.31
2023-03-14T08:28:19.858Z,83.04
2023-03-14T08:29:19.857Z,84.03
2023-03-14T08:30:19.922Z,83.01
2023-03-14T08:31:20.032Z,83.51
2023-03-14T08:32:19.864Z,83.11
2023-03-14T08:33:19.810Z,82.76
2023-03-14T08:34:19.802Z,82.90
2023-03-14T08:35:19.798Z,83.07
2023-03-14T08:36:23.144Z,82.35
2023-03-14T08:37:26.768Z,82.26
2023-03-14T08:38:20.779Z,81.54
2023-03-14T08:39:19.800Z,80.97
2023-03-14T08:40:19.726Z,81.68
2023-03-14T08:41:19.738Z,82.19
2023-03-14T08:42:19.698Z,82.19
2023-03-14T08:43:19.705Z,81.68
2023-03-14T08:44:20.882Z,82.40
2023-03-14T08:45:19.675Z,82.60
2023-03-14T08:46:19.747Z,83.11
2023-03-14T08:47:19.693Z,81.88
2023-03-14T08:48:19.637Z,83.11
2023-03-14T08:49:19.643Z,82.60
2023-03-14T08:50:19.609Z,83.11
2023-03-14T08:51:19.611Z,83.11
2023-03-14T08:52:19.635Z,83.21
2023-03-14T08:53:19.629Z,83.01
2023-03-14T08:54:19.593Z,83.65
2023-03-14T08:55:19.567Z,83.35
2023-03-14T08:56:19.553Z,83.62
2023-03-14T08:57:19.566Z,83.65
2023-03-14T08:58:19.523Z,84.58
2023-03-14T08:59:19.507Z,84.43
2023-03-14T09:00:19.528Z,84.67
2023-03-14T09:01:19.640Z,84.64
2023-03-14T09:02:19.485Z,85.08
2023-03-14T09:03:19.488Z,85.60
2023-03-14T09:04:19.505Z,86.30
2023-03-14T09:05:19.488Z,86.41
2023-03-14T09:06:19.436Z,85.08
2023-03-14T09:07:19.437Z,85.90
2023-03-14T09:08:19.419Z,86.82
2023-03-14T09:09:19.411Z,86.61
2023-03-14T09:10:19.420Z,87.06
2023-03-14T09:11:19.375Z,87.16
2023-03-14T09:12:19.421Z,86.96
2023-03-14T09:13:19.343Z,86.96
2023-03-14T09:14:20.908Z,88.49
2023-03-14T09:15:19.332Z,89.34
2023-03-14T09:16:19.423Z,89.61
2023-03-14T09:17:19.323Z,89.86
2023-03-14T09:18:19.292Z,89.86
2023-03-14T09:19:19.276Z,91.08
2023-03-14T09:20:19.272Z,91.28
2023-03-14T09:21:19.255Z,91.94
2023-03-14T09:22:19.260Z,92.14
2023-03-14T09:23:19.249Z,92.45
2023-03-14T09:24:19.239Z,92.55
2023-03-14T09:25:19.236Z,93.10
2023-03-14T09:26:19.250Z,93.10
2023-03-14T09:27:19.226Z,93.31
2023-03-14T09:28:19.206Z,93.82
2023-03-14T09:29:19.177Z,93.96
2023-03-14T09:30:19.183Z,94.17
2023-03-14T09:31:19.198Z,94.27
2023-03-14T09:32:19.309Z,94.17
2023-03-14T09:33:19.120Z,94.37
2023-03-14T09:34:19.125Z,95.09
2023-03-14T09:35:19.186Z,94.58
2023-03-14T09:36:19.090Z,94.89
2023-03-14T09:37:19.124Z,95.15
2023-03-14T09:38:19.103Z,94.53
2023-03-14T09:39:19.068Z,94.98
2023-03-14T09:40:19.056Z,94.68
2023-03-14T09:41:19.035Z,94.58
2023-03-14T09:42:19.144Z,94.32
2023-03-14T09:43:19.006Z,95.75
2023-03-14T09:44:18.998Z,94.46
2023-03-14T09:45:18.981Z,93.24
2023-03-14T09:46:18.993Z,93.38
2023-03-14T09:47:19.159Z,93.63
2023-03-14T09:48:18.950Z,93.57
2023-03-14T09:49:18.935Z,94.39
2023-03-14T09:50:18.926Z,93.71
2023-03-14T09:51:18.909Z,94.54
2023-03-14T09:52:19.104Z,94.99
2023-03-14T09:53:18.886Z,94.89
2023-03-14T09:54:18.890Z,95.70
2023-03-14T09:55:18.870Z,95.61
2023-03-14T09:56:18.860Z,95.95
2023-03-14T09:57:18.874Z,95.54
2023-03-14T09:58:18.862Z,95.90
2023-03-14T09:59:18.817Z,95.59
2023-03-14T10:00:18.815Z,96.41
2023-03-14T10:01:18.865Z,96.41
2023-03-14T10:02:18.798Z,96.62
2023-03-14T10:03:18.768Z,96.56
2023-03-14T10:04:18.882Z,96.45
2023-03-14T10:05:18.760Z,96.62
2023-03-14T10:06:18.757Z,96.82
2023-03-14T10:07:18.748Z,97.28
2023-03-14T10:08:18.735Z,97.58
2023-03-14T10:09:18.715Z,97.38
2023-03-14T10:10:18.696Z,97.79
2023-03-14T10:11:18.674Z,98.10
2023-03-14T10:12:18.734Z,97.89
2023-03-14T10:13:18.669Z,97.99
2023-03-14T10:14:18.715Z,97.58
2023-03-14T10:15:18.641Z,97.79
2023-03-14T10:16:18.655Z,97.89
2023-03-14T10:17:18.632Z,97.94
2023-03-14T10:18:18.638Z,98.35
2023-03-14T10:19:18.600Z,98.14
2023-03-14T10:20:18.620Z,97.73
2023-03-14T10:21:18.580Z,97.73
2023-03-14T10:22:18.561Z,98.25
2023-03-14T10:23:18.559Z,97.94
2023-03-14T10:24:18.552Z,98.04
2023-03-14T10:25:18.513Z,97.83
2023-03-14T10:26:18.524Z,98.14
2023-03-14T10:27:18.512Z,97.73
2023-03-14T10:28:18.498Z,97.67
2023-03-14T10:29:18.493Z,97.06
2023-03-14T10:30:18.594Z,97.16
2023-03-14T10:31:18.489Z,97.06
2023-03-14T10:32:18.458Z,97.67
2023-03-14T10:33:18.427Z,97.06
2023-03-14T10:34:18.447Z,96.65
2023-03-14T10:35:18.427Z,97.06
2023-03-14T10:36:18.448Z,96.75
2023-03-14T10:37:18.382Z,97.00
2023-03-14T10:38:18.396Z,96.69
2023-03-14T10:39:18.380Z,96.75
2023-03-14T10:40:18.458Z,96.85
2023-03-14T10:41:18.352Z,96.34
2023-03-14T10:42:18.352Z,97.16
2023-03-14T10:43:18.329Z,96.85
2023-03-14T10:44:18.340Z,96.23
2023-03-14T10:45:18.308Z,96.85
2023-03-14T10:46:18.517Z,96.65
2023-03-14T10:47:18.665Z,96.55
2023-03-14T10:48:18.266Z,96.14
2023-03-14T10:49:18.248Z,96.65
2023-03-14T10:50:18.263Z,96.44
2023-03-14T10:51:18.241Z,96.44
2023-03-14T10:52:18.230Z,96.55
2023-03-14T10:53:18.206Z,96.30
2023-03-14T10:54:18.197Z,96.40
2023-03-14T10:55:18.214Z,96.34
2023-03-14T10:56:18.182Z,96.50
2023-03-14T10:57:18.171Z,96.50
2023-03-14T10:58:18.152Z,96.60
2023-03-14T10:59:18.150Z,96.60
2023-03-14T11:00:18.169Z,96.19
2023-03-14T11:01:18.137Z,96.40
2023-03-14T11:02:18.142Z,96.40
2023-03-14T11:03:18.106Z,96.40
2023-03-14T11:04:18.130Z,96.40
2023-03-14T11:05:18.091Z,96.81
2023-03-14T11:06:18.078Z,95.98
2023-03-14T11:07:18.042Z,95.89
2023-03-14T11:08:18.040Z,95.68
2023-03-14T11:09:18.034Z,95.57
2023-03-14T11:10:18.029Z,95.37
2023-03-14T11:11:18.013Z,95.89
2023-03-14T11:12:17.993Z,95.84
2023-03-14T11:13:17.987Z,96.19
2023-03-14T11:14:17.990Z,95.57
2023-03-14T11:15:17.969Z,95.68
2023-03-14T11:16:17.993Z,95.78
2023-03-14T11:17:17.942Z,95.84
2023-03-14T11:18:17.963Z,96.56
2023-03-14T11:19:17.942Z,96.25
2023-03-14T11:20:17.947Z,96.62
2023-03-14T11:21:17.896Z,95.79
2023-03-14T11:22:17.916Z,95.59
2023-03-14T11:23:17.893Z,95.65
2023-03-14T11:24:17.866Z,95.81
2023-03-14T11:25:17.847Z,95.70
2023-03-14T11:26:17.896Z,94.64
2023-03-14T11:27:17.837Z,93.30
2023-03-14T11:28:17.810Z,92.34
2023-03-14T11:29:17.825Z,92.40
2023-03-14T11:30:18.656Z,91.13
2023-03-14T11:31:17.862Z,90.92
2023-03-14T11:32:17.766Z,89.90
2023-03-14T11:33:17.759Z,89.09
2023-03-14T11:34:17.805Z,88.57
2023-03-14T11:35:17.727Z,88.53
2023-03-14T11:36:17.758Z,88.23
2023-03-14T11:37:17.737Z,86.96
2023-03-14T11:38:17.709Z,87.06
2023-03-14T11:39:17.710Z,86.55
2023-03-14T11:40:17.680Z,86.41
2023-03-14T11:41:17.699Z,85.22
2023-03-14T11:42:17.694Z,86.44
2023-03-14T11:43:17.668Z,85.94
2023-03-14T11:44:17.629Z,84.71
2023-03-14T11:45:17.647Z,85.16
2023-03-14T11:46:17.691Z,85.67
2023-03-14T11:47:17.595Z,84.93
2023-03-14T11:48:17.601Z,83.33
2023-03-14T11:49:17.568Z,83.44
2023-03-14T11:50:17.597Z,84.84
2023-03-14T11:51:17.581Z,85.80
2023-03-14T11:52:17.537Z,86.83
2023-03-14T11:53:17.534Z,87.49
2023-03-14T11:54:17.532Z,87.84
2023-03-14T11:55:17.787Z,88.76
2023-03-14T11:56:17.602Z,88.66
2023-03-14T11:57:17.505Z,88.90
2023-03-14T11:58:17.725Z,89.56
2023-03-14T11:59:17.454Z,89.87
2023-03-14T12:00:17.460Z,90.59
2023-03-14T12:01:17.584Z,90.08
2023-03-14T12:02:17.462Z,90.28
2023-03-14T12:03:17.403Z,90.08
2023-03-14T12:04:17.641Z,90.94
2023-03-14T12:05:17.405Z,91.25
2023-03-14T12:06:17.519Z,91.10
2023-03-14T12:07:17.436Z,91.76
2023-03-14T12:08:17.353Z,91.72
2023-03-14T12:09:17.349Z,91.86
2023-03-14T12:10:17.344Z,91.66
2023-03-14T12:11:17.322Z,92.03
2023-03-14T12:12:17.317Z,91.82
2023-03-14T12:13:17.288Z,92.54
2023-03-14T12:14:17.288Z,92.69
2023-03-14T12:15:17.267Z,92.64
2023-03-14T12:16:17.420Z,92.44
2023-03-14T12:17:17.257Z,92.64
2023-03-14T12:18:17.234Z,92.54
2023-03-14T12:19:17.240Z,92.74
2023-03-14T12:20:17.284Z,92.91
2023-03-14T12:21:17.220Z,92.95
2023-03-14T12:22:17.233Z,92.64
2023-03-14T12:23:17.221Z,92.33
2023-03-14T12:24:17.360Z,92.74
2023-03-14T12:25:17.153Z,92.74
2023-03-14T12:26:17.154Z,91.31
2023-03-14T12:27:17.160Z,91.61
2023-03-14T12:28:17.119Z,92.85
2023-03-14T12:29:17.126Z,92.79
2023-03-14T12:30:17.140Z,92.54
2023-03-14T12:31:17.163Z,92.95
2023-03-14T12:32:17.111Z,92.95
2023-03-14T12:33:17.064Z,93.05
2023-03-14T12:34:17.088Z,92.85
2023-03-14T12:35:17.092Z,93.05
2023-03-14T12:36:17.043Z,92.91
2023-03-14T12:37:17.048Z,93.21
2023-03-14T12:38:17.065Z,92.64
2023-03-14T12:39:17.088Z,91.61
2023-03-14T12:40:17.092Z,91.61
2023-03-14T12:41:16.987Z,91.20
2023-03-14T12:42:16.974Z,90.28
2023-03-14T12:43:16.983Z,89.97
2023-03-14T12:44:16.953Z,89.15
2023-03-14T12:45:16.941Z,88.53
2023-03-14T12:46:17.056Z,88.64
2023-03-14T12:47:16.899Z,88.43
2023-03-14T12:48:16.936Z,88.84
2023-03-14T12:49:16.895Z,88.53
2023-03-14T12:50:16.889Z,88.33
2023-03-14T12:51:16.883Z,88.23
2023-03-14T12:52:16.860Z,87.92